Terminal Aerodrome Forecast
Issued by NWS Mt. Holly, NJ

Home | Current Version | Previous Version | Text Only | Print | Product List | Glossary On
Versions: 1 2 3 4 5 6 7 8 9 10 11 12 13 14
000
FTUS41 KPHI 222321
TAFABE
TAF
KABE 222321Z 2300/2324 32010G18KT P6SM OVC045
     FM230400 32008KT P6SM SCT045
     FM230700 30006KT P6SM SKC
     FM232100 27006KT P6SM SKC=

USA.gov is the U.S. government's official web portal to all federal, state and local government web resources and services.